sensor_id;sensor_type;location;lat;lon;timestamp;pressure;altitude;pressure_sealevel;temperature;humidity
71195;BME280;58908;51.426;7.714;2024-01-30T00:01:49;100898.81;;;9.01;100.00
71195;BME280;58908;51.426;7.714;2024-01-30T00:04:16;100907.44;;;9.06;100.00
71195;BME280;58908;51.426;7.714;2024-01-30T00:06:43;100908.13;;;9.11;100.00
71195;BME280;58908;51.426;7.714;2024-01-30T00:09:10;100900.84;;;9.19;100.00
71195;BME280;58908;51.426;7.714;2024-01-30T00:11:36;100898.16;;;9.20;100.00
71195;BME280;58908;51.426;7.714;2024-01-30T00:14:03;100897.34;;;9.18;100.00
71195;BME280;58908;51.426;7.714;2024-01-30T00:16:31;100898.31;;;9.16;100.00
71195;BME280;58908;51.426;7.714;2024-01-30T00:18:57;100903.41;;;9.20;100.00
71195;BME280;58908;51.426;7.714;2024-01-30T00:21:24;100904.59;;;9.12;100.00
71195;BME280;58908;51.426;7.714;2024-01-30T00:23:51;100902.09;;;9.07;100.00
71195;BME280;58908;51.426;7.714;2024-01-30T00:26:17;100910.75;;;9.11;100.00
71195;BME280;58908;51.426;7.714;2024-01-30T00:28:44;100902.41;;;8.98;100.00
71195;BME280;58908;51.426;7.714;2024-01-30T00:31:10;100901.19;;;9.08;100.00
71195;BME280;58908;51.426;7.714;2024-01-30T00:33:39;100904.13;;;8.99;100.00
71195;BME280;58908;51.426;7.714;2024-01-30T00:36:06;100907.00;;;8.92;100.00
71195;BME280;58908;51.426;7.714;2024-01-30T00:38:32;100901.94;;;8.86;100.00
71195;BME280;58908;51.426;7.714;2024-01-30T00:40:59;100903.03;;;8.79;100.00
71195;BME280;58908;51.426;7.714;2024-01-30T00:43:26;100909.13;;;8.81;100.00
71195;BME280;58908;51.426;7.714;2024-01-30T00:45:53;100896.63;;;8.87;100.00
71195;BME280;58908;51.426;7.714;2024-01-30T00:48:19;100892.13;;;8.91;100.00
71195;BME280;58908;51.426;7.714;2024-01-30T00:50:47;100894.75;;;8.91;100.00
71195;BME280;58908;51.426;7.714;2024-01-30T00:53:14;100894.88;;;8.88;100.00
71195;BME280;58908;51.426;7.714;2024-01-30T00:55:40;100892.78;;;8.97;100.00
71195;BME280;58908;51.426;7.714;2024-01-30T00:58:10;100889.91;;;9.05;100.00
71195;BME280;58908;51.426;7.714;2024-01-30T01:00:36;100887.34;;;9.03;100.00
71195;BME280;58908;51.426;7.714;2024-01-30T01:03:03;100882.63;;;9.13;100.00
71195;BME280;58908;51.426;7.714;2024-01-30T01:05:29;100882.88;;;9.05;100.00
71195;BME280;58908;51.426;7.714;2024-01-30T01:07:57;100886.19;;;9.10;100.00
71195;BME280;58908;51.426;7.714;2024-01-30T01:10:24;100878.16;;;9.15;100.00
71195;BME280;58908;51.426;7.714;2024-01-30T01:12:50;100883.34;;;9.18;100.00
71195;BME280;58908;51.426;7.714;2024-01-30T01:15:17;100878.00;;;9.19;100.00
71195;BME280;58908;51.426;7.714;2024-01-30T01:17:46;100872.75;;;9.19;100.00
71195;BME280;58908;51.426;7.714;2024-01-30T01:20:12;100871.25;;;9.12;100.00
71195;BME280;58908;51.426;7.714;2024-01-30T01:22:39;100878.00;;;9.19;100.00
71195;BME280;58908;51.426;7.714;2024-01-30T01:25:07;100873.91;;;9.11;100.00
71195;BME280;58908;51.426;7.714;2024-01-30T01:27:33;100877.31;;;9.14;100.00
71195;BME280;58908;51.426;7.714;2024-01-30T01:30:05;100876.34;;;9.17;100.00
71195;BME280;58908;51.426;7.714;2024-01-30T01:32:34;100873.72;;;9.17;100.00
71195;BME280;58908;51.426;7.714;2024-01-30T01:35:00;100882.63;;;9.13;100.00
71195;BME280;58908;51.426;7.714;2024-01-30T01:37:27;100867.31;;;9.24;100.00
71195;BME280;58908;51.426;7.714;2024-01-30T01:39:55;100874.72;;;9.13;100.00
71195;BME280;58908;51.426;7.714;2024-01-30T01:42:23;100882.44;;;9.19;100.00
71195;BME280;58908;51.426;7.714;2024-01-30T01:44:49;100872.19;;;9.10;100.00
71195;BME280;58908;51.426;7.714;2024-01-30T01:47:16;100873.53;;;9.21;100.00
71195;BME280;58908;51.426;7.714;2024-01-30T01:49:42;100872.69;;;9.21;100.00
71195;BME280;58908;51.426;7.714;2024-01-30T01:52:09;100868.75;;;9.08;100.00
71195;BME280;58908;51.426;7.714;2024-01-30T01:54:36;100874.78;;;9.11;100.00
71195;BME280;58908;51.426;7.714;2024-01-30T01:57:03;100868.03;;;9.03;100.00
71195;BME280;58908;51.426;7.714;2024-01-30T01:59:31;100878.56;;;9.03;100.00
71195;BME280;58908;51.426;7.714;2024-01-30T02:01:58;100871.94;;;9.17;100.00
71195;BME280;58908;51.426;7.714;2024-01-30T02:04:24;100869.53;;;9.11;100.00
71195;BME280;58908;51.426;7.714;2024-01-30T02:06:51;100868.81;;;9.06;100.00
71195;BME280;58908;51.426;7.714;2024-01-30T02:09:17;100874.78;;;9.11;100.00
71195;BME280;58908;51.426;7.714;2024-01-30T02:11:43;100866.78;;;9.14;100.00
71195;BME280;58908;51.426;7.714;2024-01-30T02:14:10;100868.75;;;9.08;100.00
71195;BME280;58908;51.426;7.714;2024-01-30T02:16:37;100867.19;;;9.02;100.00
71195;BME280;58908;51.426;7.714;2024-01-30T02:19:03;100869.75;;;9.04;100.00
71195;BME280;58908;51.426;7.714;2024-01-30T02:21:31;100867.34;;;8.98;100.00
71195;BME280;58908;51.426;7.714;2024-01-30T02:23:58;100862.22;;;8.93;100.00
71195;BME280;58908;51.426;7.714;2024-01-30T02:26:25;100857.81;;;8.94;100.00
71195;BME280;58908;51.426;7.714;2024-01-30T02:28:51;100862.34;;;8.90;100.00
71195;BME280;58908;51.426;7.714;2024-01-30T02:31:17;100854.88;;;8.77;100.00
71195;BME280;58908;51.426;7.714;2024-01-30T02:33:44;100853.97;;;8.78;100.00
71195;BME280;58908;51.426;7.714;2024-01-30T02:36:10;100852.94;;;8.82;100.00
71195;BME280;58908;51.426;7.714;2024-01-30T02:38:37;100849.72;;;8.74;100.00
71195;BME280;58908;51.426;7.714;2024-01-30T02:41:04;100854.38;;;8.66;100.00
71195;BME280;58908;51.426;7.714;2024-01-30T02:43:30;100855.19;;;8.68;100.00
71195;BME280;58908;51.426;7.714;2024-01-30T02:45:56;100853.75;;;8.58;100.00
71195;BME280;58908;51.426;7.714;2024-01-30T02:48:23;100849.13;;;8.66;100.00
71195;BME280;58908;51.426;7.714;2024-01-30T02:50:49;100851.19;;;8.56;100.00
71195;BME280;58908;51.426;7.714;2024-01-30T02:53:15;100857.53;;;8.49;100.00
71195;BME280;58908;51.426;7.714;2024-01-30T02:55:43;100854.63;;;8.31;100.00
71195;BME280;58908;51.426;7.714;2024-01-30T02:58:09;100847.81;;;8.24;100.00
71195;BME280;58908;51.426;7.714;2024-01-30T03:00:35;100849.53;;;8.25;100.00
71195;BME280;58908;51.426;7.714;2024-01-30T03:03:02;100850.44;;;8.24;100.00
71195;BME280;58908;51.426;7.714;2024-01-30T03:05:28;100846.25;;;8.17;100.00
71195;BME280;58908;51.426;7.714;2024-01-30T03:07:54;100841.78;;;8.20;100.00
71195;BME280;58908;51.426;7.714;2024-01-30T03:10:21;100843.50;;;8.21;100.00
71195;BME280;58908;51.426;7.714;2024-01-30T03:12:48;100840.97;;;8.18;100.00
71195;BME280;58908;51.426;7.714;2024-01-30T03:15:14;100835.59;;;8.23;100.00
71195;BME280;58908;51.426;7.714;2024-01-30T03:17:41;100833.44;;;8.35;100.00
71195;BME280;58908;51.426;7.714;2024-01-30T03:20:07;100821.78;;;8.44;100.00
71195;BME280;58908;51.426;7.714;2024-01-30T03:22:34;100828.66;;;8.48;100.00
71195;BME280;58908;51.426;7.714;2024-01-30T03:25:00;100824.06;;;8.54;100.00
71195;BME280;58908;51.426;7.714;2024-01-30T03:27:26;100816.09;;;8.57;100.00
71195;BME280;58908;51.426;7.714;2024-01-30T03:29:55;100817.16;;;8.52;100.00
71195;BME280;58908;51.426;7.714;2024-01-30T03:32:21;100811.66;;;8.58;100.00
71195;BME280;58908;51.426;7.714;2024-01-30T03:34:47;100806.16;;;8.65;100.00
71195;BME280;58908;51.426;7.714;2024-01-30T03:37:14;100808.91;;;8.62;100.00
71195;BME280;58908;51.426;7.714;2024-01-30T03:39:40;100799.53;;;8.80;100.00
71195;BME280;58908;51.426;7.714;2024-01-30T03:42:06;100803.88;;;8.81;100.00
71195;BME280;58908;51.426;7.714;2024-01-30T03:44:32;100798.69;;;8.79;100.00
71195;BME280;58908;51.426;7.714;2024-01-30T03:47:00;100797.41;;;8.91;100.00
71195;BME280;58908;51.426;7.714;2024-01-30T03:49:26;100796.28;;;8.98;100.00
71195;BME280;58908;51.426;7.714;2024-01-30T03:51:52;100800.84;;;8.93;100.00
71195;BME280;58908;51.426;7.714;2024-01-30T03:54:18;100785.47;;;9.07;100.00
71195;BME280;58908;51.426;7.714;2024-01-30T03:56:45;100791.94;;;8.97;100.00
71195;BME280;58908;51.426;7.714;2024-01-30T03:59:11;100783.03;;;9.01;100.00
71195;BME280;58908;51.426;7.714;2024-01-30T04:01:37;100783.81;;;9.03;100.00
71195;BME280;58908;51.426;7.714;2024-01-30T04:04:05;100778.94;;;8.92;100.00
71195;BME280;58908;51.426;7.714;2024-01-30T04:06:31;100780.41;;;9.01;100.00
71195;BME280;58908;51.426;7.714;2024-01-30T04:08:57;100776.97;;;8.99;100.00
71195;BME280;58908;51.426;7.714;2024-01-30T04:11:23;100777.50;;;9.08;100.00
71195;BME280;58908;51.426;7.714;2024-01-30T04:13:50;100772.03;;;9.14;100.00
71195;BME280;58908;51.426;7.714;2024-01-30T04:16:19;100774.66;;;9.14;100.00
71195;BME280;58908;51.426;7.714;2024-01-30T04:18:46;100767.84;;;9.09;100.00
71195;BME280;58908;51.426;7.714;2024-01-30T04:21:14;100768.84;;;9.05;100.00
71195;BME280;58908;51.426;7.714;2024-01-30T04:23:40;100767.97;;;9.06;100.00
71195;BME280;58908;51.426;7.714;2024-01-30T04:26:06;100768.47;;;8.91;100.00
71195;BME280;58908;51.426;7.714;2024-01-30T04:28:33;100768.72;;;8.83;100.00
71195;BME280;58908;51.426;7.714;2024-01-30T04:30:59;100775.94;;;8.78;100.00
71195;BME280;58908;51.426;7.714;2024-01-30T04:33:25;100782.94;;;8.78;100.00
71195;BME280;58908;51.426;7.714;2024-01-30T04:35:51;100778.59;;;8.77;100.00
71195;BME280;58908;51.426;7.714;2024-01-30T04:38:19;100778.88;;;8.69;100.00
71195;BME280;58908;51.426;7.714;2024-01-30T04:40:45;100783.41;;;8.64;100.00
71195;BME280;58908;51.426;7.714;2024-01-30T04:43:11;100782.09;;;8.51;100.00
71195;BME280;58908;51.426;7.714;2024-01-30T04:45:38;100781.28;;;8.49;100.00
71195;BME280;58908;51.426;7.714;2024-01-30T04:48:04;100778.75;;;8.46;100.00
71195;BME280;58908;51.426;7.714;2024-01-30T04:50:31;100780.00;;;8.35;100.00
71195;BME280;58908;51.426;7.714;2024-01-30T04:52:57;100778.38;;;8.31;100.00
71195;BME280;58908;51.426;7.714;2024-01-30T04:55:24;100771.81;;;8.16;100.00
71195;BME280;58908;51.426;7.714;2024-01-30T04:57:51;100772.91;;;8.37;100.00
71195;BME280;58908;51.426;7.714;2024-01-30T05:00:17;100771.72;;;8.19;100.00
71195;BME280;58908;51.426;7.714;2024-01-30T05:02:43;100773.03;;;8.05;100.00
71195;BME280;58908;51.426;7.714;2024-01-30T05:05:09;100775.66;;;8.05;100.00
71195;BME280;58908;51.426;7.714;2024-01-30T05:07:36;100774.25;;;7.95;100.00
71195;BME280;58908;51.426;7.714;2024-01-30T05:10:02;100776.50;;;7.78;100.00
71195;BME280;58908;51.426;7.714;2024-01-30T05:12:30;100769.56;;;7.75;100.00
71195;BME280;58908;51.426;7.714;2024-01-30T05:14:56;100773.16;;;7.73;100.00
71195;BME280;58908;51.426;7.714;2024-01-30T05:17:22;100766.94;;;7.75;100.00
71195;BME280;58908;51.426;7.714;2024-01-30T05:19:49;100775.78;;;7.73;100.00
71195;BME280;58908;51.426;7.714;2024-01-30T05:22:15;100761.81;;;7.71;100.00
71195;BME280;58908;51.426;7.714;2024-01-30T05:24:43;100767.41;;;7.60;100.00
71195;BME280;58908;51.426;7.714;2024-01-30T05:27:10;100770.28;;;7.51;100.00
71195;BME280;58908;51.426;7.714;2024-01-30T05:29:39;100769.09;;;7.63;100.00
71195;BME280;58908;51.426;7.714;2024-01-30T05:32:06;100772.09;;;7.49;100.00
71195;BME280;58908;51.426;7.714;2024-01-30T05:34:32;100768.56;;;7.50;100.00
71195;BME280;58908;51.426;7.714;2024-01-30T05:36:58;100772.91;;;7.51;100.00
71195;BME280;58908;51.426;7.714;2024-01-30T05:39:25;100770.50;;;7.44;100.00
71195;BME280;58908;51.426;7.714;2024-01-30T05:41:51;100772.47;;;7.36;100.00
71195;BME280;58908;51.426;7.714;2024-01-30T05:44:17;100770.38;;;7.48;100.00
71195;BME280;58908;51.426;7.714;2024-01-30T05:46:45;100780.28;;;7.39;100.00
71195;BME280;58908;51.426;7.714;2024-01-30T05:49:11;100778.03;;;7.25;100.00
71195;BME280;58908;51.426;7.714;2024-01-30T05:51:37;100778.69;;;7.33;100.00
71195;BME280;58908;51.426;7.714;2024-01-30T05:54:03;100774.13;;;7.40;100.00
71195;BME280;58908;51.426;7.714;2024-01-30T05:56:30;100781.78;;;7.17;100.00
71195;BME280;58908;51.426;7.714;2024-01-30T05:58:56;100783.94;;;7.33;100.00
71195;BME280;58908;51.426;7.714;2024-01-30T06:01:22;100769.97;;;7.31;100.00
71195;BME280;58908;51.426;7.714;2024-01-30T06:03:50;100769.25;;;7.26;100.00
71195;BME280;58908;51.426;7.714;2024-01-30T06:06:16;100769.25;;;7.26;100.00
71195;BME280;58908;51.426;7.714;2024-01-30T06:08:42;100766.88;;;7.17;100.00
71195;BME280;58908;51.426;7.714;2024-01-30T06:11:09;100761.75;;;7.13;100.00
71195;BME280;58908;51.426;7.714;2024-01-30T06:13:36;100769.28;;;7.25;100.00
71195;BME280;58908;51.426;7.714;2024-01-30T06:16:02;100764.91;;;6.95;100.00
71195;BME280;58908;51.426;7.714;2024-01-30T06:18:28;100771.69;;;7.02;100.00
71195;BME280;58908;51.426;7.714;2024-01-30T06:20:57;100775.56;;;7.19;100.00
71195;BME280;58908;51.426;7.714;2024-01-30T06:23:24;100770.00;;;6.99;100.00
71195;BME280;58908;51.426;7.714;2024-01-30T06:25:50;100775.44;;;6.92;100.00
71195;BME280;58908;51.426;7.714;2024-01-30T06:28:16;100781.91;;;7.12;100.00
71195;BME280;58908;51.426;7.714;2024-01-30T06:30:42;100779.31;;;7.11;100.00
71195;BME280;58908;51.426;7.714;2024-01-30T06:33:11;100779.41;;;7.08;100.00
71195;BME280;58908;51.426;7.714;2024-01-30T06:35:37;100782.19;;;7.02;100.00
71195;BME280;58908;51.426;7.714;2024-01-30T06:38:06;100778.41;;;7.12;100.00
71195;BME280;58908;51.426;7.714;2024-01-30T06:40:32;100770.63;;;7.09;100.00
71195;BME280;58908;51.426;7.714;2024-01-30T06:42:59;100767.91;;;7.12;100.00
71195;BME280;58908;51.426;7.714;2024-01-30T06:45:25;100771.34;;;7.14;100.00
71195;BME280;58908;51.426;7.714;2024-01-30T06:47:51;100767.66;;;7.21;100.00
71195;BME280;58908;51.426;7.714;2024-01-30T06:50:17;100770.56;;;7.10;100.00
71195;BME280;58908;51.426;7.714;2024-01-30T06:52:43;100770.66;;;7.07;100.00
71195;BME280;58908;51.426;7.714;2024-01-30T06:55:11;100774.03;;;7.12;100.00
71195;BME280;58908;51.426;7.714;2024-01-30T06:57:37;100776.56;;;7.15;100.00
71195;BME280;58908;51.426;7.714;2024-01-30T07:00:04;100775.19;;;7.03;100.00
71195;BME280;58908;51.426;7.714;2024-01-30T07:02:30;100777.72;;;7.05;100.00
71195;BME280;58908;51.426;7.714;2024-01-30T07:04:57;100776.38;;;7.21;100.00
71195;BME280;58908;51.426;7.714;2024-01-30T07:07:23;100775.44;;;7.24;100.00
71195;BME280;58908;51.426;7.714;2024-01-30T07:09:51;100773.47;;;7.32;100.00
71195;BME280;58908;51.426;7.714;2024-01-30T07:12:22;100769.91;;;7.34;100.00
71195;BME280;58908;51.426;7.714;2024-01-30T07:14:50;100771.91;;;7.25;100.00
71195;BME280;58908;51.426;7.714;2024-01-30T07:17:17;100775.66;;;7.16;100.00
71195;BME280;58908;51.426;7.714;2024-01-30T07:19:43;100766.91;;;7.16;100.00
71195;BME280;58908;51.426;7.714;2024-01-30T07:22:09;100770.28;;;7.21;100.00
71195;BME280;58908;51.426;7.714;2024-01-30T07:24:35;100776.44;;;7.20;100.00
71195;BME280;58908;51.426;7.714;2024-01-30T07:27:02;100773.84;;;7.18;100.00
71195;BME280;58908;51.426;7.714;2024-01-30T07:29:29;100780.34;;;7.05;100.00
71195;BME280;58908;51.426;7.714;2024-01-30T07:31:55;100768.56;;;7.20;100.00
71195;BME280;58908;51.426;7.714;2024-01-30T07:34:22;100770.72;;;7.36;100.00
71195;BME280;58908;51.426;7.714;2024-01-30T07:36:48;100767.63;;;7.53;100.00
71195;BME280;58908;51.426;7.714;2024-01-30T07:39:14;100759.84;;;7.79;100.00
71195;BME280;58908;51.426;7.714;2024-01-30T07:41:40;100760.53;;;8.13;100.00
71195;BME280;58908;51.426;7.714;2024-01-30T07:44:07;100760.16;;;8.25;100.00
71195;BME280;58908;51.426;7.714;2024-01-30T07:46:34;100755.50;;;8.34;100.00
71195;BME280;58908;51.426;7.714;2024-01-30T07:49:00;100768.16;;;8.48;100.00
71195;BME280;58908;51.426;7.714;2024-01-30T07:51:27;100770.47;;;8.58;100.00
71195;BME280;58908;51.426;7.714;2024-01-30T07:53:54;100767.31;;;8.73;100.00
71195;BME280;58908;51.426;7.714;2024-01-30T07:56:20;100775.38;;;8.95;100.00
71195;BME280;58908;51.426;7.714;2024-01-30T07:58:46;100782.06;;;9.03;100.00
71195;BME280;58908;51.426;7.714;2024-01-30T08:01:14;100783.03;;;9.01;100.00
71195;BME280;58908;51.426;7.714;2024-01-30T08:03:41;100775.88;;;9.04;100.00
71195;BME280;58908;51.426;7.714;2024-01-30T08:06:08;100779.56;;;9.00;100.00
71195;BME280;58908;51.426;7.714;2024-01-30T08:08:34;100784.63;;;9.05;100.00
71195;BME280;58908;51.426;7.714;2024-01-30T08:11:00;100788.44;;;8.96;100.00
71195;BME280;58908;51.426;7.714;2024-01-30T08:13:27;100788.59;;;8.92;100.00
71195;BME280;58908;51.426;7.714;2024-01-30T08:15:53;100789.09;;;9.03;100.00
71195;BME280;58908;51.426;7.714;2024-01-30T08:18:19;100783.47;;;9.13;100.00
71195;BME280;58908;51.426;7.714;2024-01-30T08:20:47;100785.66;;;9.25;100.00
71195;BME280;58908;51.426;7.714;2024-01-30T08:23:14;100782.81;;;9.31;100.00
71195;BME280;58908;51.426;7.714;2024-01-30T08:25:40;100784.47;;;9.34;100.00
71195;BME280;58908;51.426;7.714;2024-01-30T08:28:06;100776.75;;;9.52;100.00
71195;BME280;58908;51.426;7.714;2024-01-30T08:30:33;100777.06;;;9.67;100.00
71195;BME280;58908;51.426;7.714;2024-01-30T08:32:59;100772.53;;;9.71;100.00
71195;BME280;58908;51.426;7.714;2024-01-30T08:35:25;100785.38;;;9.80;100.00
71195;BME280;58908;51.426;7.714;2024-01-30T08:37:53;100775.22;;;9.92;100.00
71195;BME280;58908;51.426;7.714;2024-01-30T08:40:20;100767.69;;;10.06;100.00
71195;BME280;58908;51.426;7.714;2024-01-30T08:42:46;100768.34;;;10.11;100.00
71195;BME280;58908;51.426;7.714;2024-01-30T08:45:12;100760.34;;;10.36;100.00
71195;BME280;58908;51.426;7.714;2024-01-30T08:47:38;100760.38;;;10.56;100.00
71195;BME280;58908;51.426;7.714;2024-01-30T08:50:06;100756.31;;;10.69;100.00
71195;BME280;58908;51.426;7.714;2024-01-30T08:52:33;100750.72;;;10.76;100.00
71195;BME280;58908;51.426;7.714;2024-01-30T08:55:01;100747.16;;;10.77;100.00
71195;BME280;58908;51.426;7.714;2024-01-30T08:57:27;100748.72;;;10.81;100.00
71195;BME280;58908;51.426;7.714;2024-01-30T08:59:54;100747.75;;;10.84;100.00
71195;BME280;58908;51.426;7.714;2024-01-30T09:02:20;100748.31;;;10.70;100.00
71195;BME280;58908;51.426;7.714;2024-01-30T09:04:46;100745.66;;;10.50;100.00
71195;BME280;58908;51.426;7.714;2024-01-30T09:07:13;100746.09;;;10.61;100.00
71195;BME280;58908;51.426;7.714;2024-01-30T09:09:39;100753.78;;;10.66;100.00
71195;BME280;58908;51.426;7.714;2024-01-30T09:12:07;100750.03;;;10.71;100.00
71195;BME280;58908;51.426;7.714;2024-01-30T09:14:34;100756.22;;;10.70;100.00
71195;BME280;58908;51.426;7.714;2024-01-30T09:17:00;100756.44;;;10.86;100.00
71195;BME280;58908;51.426;7.714;2024-01-30T09:19:28;100756.66;;;10.81;100.00
71195;BME280;58908;51.426;7.714;2024-01-30T09:21:54;100753.63;;;11.10;100.00
71195;BME280;58908;51.426;7.714;2024-01-30T09:24:20;100751.22;;;11.24;100.00
71195;BME280;58908;51.426;7.714;2024-01-30T09:26:46;100759.88;;;11.28;100.00
71195;BME280;58908;51.426;7.714;2024-01-30T09:29:14;100759.13;;;11.44;100.00
71195;BME280;58908;51.426;7.714;2024-01-30T09:31:42;100773.28;;;11.43;100.00
71195;BME280;58908;51.426;7.714;2024-01-30T09:34:08;100781.47;;;11.37;100.00
71195;BME280;58908;51.426;7.714;2024-01-30T09:36:35;100778.75;;;11.39;100.00
71195;BME280;58908;51.426;7.714;2024-01-30T09:39:01;100789.28;;;11.40;100.00
71195;BME280;58908;51.426;7.714;2024-01-30T09:41:28;100792.13;;;11.36;100.00
71195;BME280;58908;51.426;7.714;2024-01-30T09:43:56;100789.09;;;11.25;100.00
71195;BME280;58908;51.426;7.714;2024-01-30T09:46:25;100796.13;;;11.24;100.00
71195;BME280;58908;51.426;7.714;2024-01-30T09:48:52;100803.28;;;11.22;100.00
71195;BME280;58908;51.426;7.714;2024-01-30T09:51:19;100797.31;;;11.37;100.00
71195;BME280;58908;51.426;7.714;2024-01-30T09:53:46;100811.34;;;11.39;100.00
71195;BME280;58908;51.426;7.714;2024-01-30T09:56:13;100809.13;;;11.49;100.00
71195;BME280;58908;51.426;7.714;2024-01-30T09:58:40;100803.09;;;11.67;100.00
71195;BME280;58908;51.426;7.714;2024-01-30T10:01:07;100802.00;;;11.71;100.00
71195;BME280;58908;51.426;7.714;2024-01-30T10:03:34;100799.31;;;11.72;100.00
71195;BME280;58908;51.426;7.714;2024-01-30T10:06:01;100799.44;;;11.88;100.00
71195;BME280;58908;51.426;7.714;2024-01-30T10:08:27;100793.47;;;11.84;100.00
71195;BME280;58908;51.426;7.714;2024-01-30T10:10:54;100795.16;;;11.85;100.00
71195;BME280;58908;51.426;7.714;2024-01-30T10:13:21;100779.16;;;11.88;100.00
71195;BME280;58908;51.426;7.714;2024-01-30T10:15:49;100786.31;;;11.86;100.00
71195;BME280;58908;51.426;7.714;2024-01-30T10:18:16;100790.31;;;11.94;100.00
71195;BME280;58908;51.426;7.714;2024-01-30T10:20:44;100782.72;;;12.05;100.00
71195;BME280;58908;51.426;7.714;2024-01-30T10:23:10;100773.66;;;12.11;100.00
71195;BME280;58908;51.426;7.714;2024-01-30T10:25:37;100766.13;;;12.20;100.00
71195;BME280;58908;51.426;7.714;2024-01-30T10:28:04;100775.44;;;12.29;100.00
71195;BME280;58908;51.426;7.714;2024-01-30T10:30:30;100772.31;;;12.38;100.00
71195;BME280;58908;51.426;7.714;2024-01-30T10:32:56;100770.00;;;12.32;100.00
71195;BME280;58908;51.426;7.714;2024-01-30T10:35:23;100772.56;;;12.33;100.00
71195;BME280;58908;51.426;7.714;2024-01-30T10:37:50;100770.16;;;12.29;100.00
71195;BME280;58908;51.426;7.714;2024-01-30T10:40:18;100765.28;;;12.20;100.00
71195;BME280;58908;51.426;7.714;2024-01-30T10:42:47;100768.91;;;12.36;100.00
71195;BME280;58908;51.426;7.714;2024-01-30T10:45:15;100774.00;;;12.22;100.00
71195;BME280;58908;51.426;7.714;2024-01-30T10:47:43;100765.78;;;12.28;100.00
71195;BME280;58908;51.426;7.714;2024-01-30T10:50:10;100777.28;;;12.27;100.00
71195;BME280;58908;51.426;7.714;2024-01-30T10:52:36;100769.09;;;12.50;100.00
71195;BME280;58908;51.426;7.714;2024-01-30T10:55:05;100766.97;;;12.39;100.00
71195;BME280;58908;51.426;7.714;2024-01-30T10:57:32;100766.59;;;12.47;100.00
71195;BME280;58908;51.426;7.714;2024-01-30T11:00:00;100763.94;;;12.47;100.00
71195;BME280;58908;51.426;7.714;2024-01-30T11:02:29;100761.41;;;12.62;100.00
71195;BME280;58908;51.426;7.714;2024-01-30T11:04:56;100760.78;;;12.57;100.00
71195;BME280;58908;51.426;7.714;2024-01-30T11:07:24;100762.34;;;12.61;100.00
71195;BME280;58908;51.426;7.714;2024-01-30T11:09:50;100765.22;;;12.57;100.00
71195;BME280;58908;51.426;7.714;2024-01-30T11:12:20;100762.19;;;12.64;100.00
71195;BME280;58908;51.426;7.714;2024-01-30T11:14:47;100766.47;;;12.67;100.00
71195;BME280;58908;51.426;7.714;2024-01-30T11:17:13;100768.84;;;12.73;100.00
71195;BME280;58908;51.426;7.714;2024-01-30T11:19:41;100768.84;;;12.73;100.00
71195;BME280;58908;51.426;7.714;2024-01-30T11:22:07;100764.53;;;12.87;100.00
71195;BME280;58908;51.426;7.714;2024-01-30T11:24:36;100771.88;;;12.82;100.00
71195;BME280;58908;51.426;7.714;2024-01-30T11:27:07;100765.16;;;12.75;100.00
71195;BME280;58908;51.426;7.714;2024-01-30T11:29:35;100766.63;;;12.81;100.00
71195;BME280;58908;51.426;7.714;2024-01-30T11:32:01;100761.22;;;12.84;100.00
71195;BME280;58908;51.426;7.714;2024-01-30T11:34:28;100765.25;;;12.91;100.00
71195;BME280;58908;51.426;7.714;2024-01-30T11:36:56;100767.88;;;12.91;100.00
71195;BME280;58908;51.426;7.714;2024-01-30T11:39:24;100767.03;;;12.73;100.00
71195;BME280;58908;51.426;7.714;2024-01-30T11:41:51;100769.28;;;12.64;100.00
71195;BME280;58908;51.426;7.714;2024-01-30T11:44:18;100774.81;;;12.76;100.00
71195;BME280;58908;51.426;7.714;2024-01-30T11:46:46;100770.69;;;12.88;100.00
71195;BME280;58908;51.426;7.714;2024-01-30T11:49:13;100773.63;;;12.82;100.00
71195;BME280;58908;51.426;7.714;2024-01-30T11:51:39;100772.91;;;12.97;100.00
71195;BME280;58908;51.426;7.714;2024-01-30T11:54:05;100779.59;;;13.04;100.00
71195;BME280;58908;51.426;7.714;2024-01-30T11:56:31;100768.88;;;13.07;100.00
71195;BME280;58908;51.426;7.714;2024-01-30T11:58:58;100770.25;;;13.14;100.00
71195;BME280;58908;51.426;7.714;2024-01-30T12:01:25;100766.84;;;12.95;100.00
71195;BME280;58908;51.426;7.714;2024-01-30T12:03:53;100766.75;;;13.13;100.00
71195;BME280;58908;51.426;7.714;2024-01-30T12:06:19;100755.88;;;13.02;100.00
71195;BME280;58908;51.426;7.714;2024-01-30T12:08:55;100755.53;;;13.25;100.00
71195;BME280;58908;51.426;7.714;2024-01-30T12:11:21;100757.78;;;13.16;100.00
71195;BME280;58908;51.426;7.714;2024-01-30T12:13:47;100774.78;;;13.12;100.00
71195;BME280;58908;51.426;7.714;2024-01-30T12:16:13;100774.31;;;13.04;100.00
71195;BME280;58908;51.426;7.714;2024-01-30T12:18:40;100781.13;;;12.91;100.00
71195;BME280;58908;51.426;7.714;2024-01-30T12:21:07;100786.16;;;12.97;100.00
71195;BME280;58908;51.426;7.714;2024-01-30T12:23:34;100785.06;;;13.18;100.00
71195;BME280;58908;51.426;7.714;2024-01-30T12:26:01;100775.50;;;13.15;100.00
71195;BME280;58908;51.426;7.714;2024-01-30T12:28:28;100790.22;;;13.21;100.00
71195;BME280;58908;51.426;7.714;2024-01-30T12:30:55;100781.78;;;13.30;100.00
71195;BME280;58908;51.426;7.714;2024-01-30T12:33:21;100790.81;;;13.43;100.00
71195;BME280;58908;51.426;7.714;2024-01-30T12:35:48;100793.47;;;13.43;100.00
71195;BME280;58908;51.426;7.714;2024-01-30T12:38:16;100792.22;;;13.33;100.00
71195;BME280;58908;51.426;7.714;2024-01-30T12:40:42;100802.69;;;13.19;100.00
71195;BME280;58908;51.426;7.714;2024-01-30T12:43:09;100812.00;;;13.26;100.00
71195;BME280;58908;51.426;7.714;2024-01-30T12:45:35;100807.28;;;13.15;100.00